Vanderburg, New Jersey
Current Conditions -  °F | °C
As of 7:35 AM on Monday 24 Nov 2014 (Local Time) from KBLM Reporting Station
Overcast Overcast  
Wind Chill: 63°   Ceiling: 500
Heat Index: 63°   Visibility: 8mi
Dew Point: 57°   Wind: 13mph
Humidity: 82%   Direction: 190°S
Pressure: 29.72"   Gusts: 20mph
Location:  40.2834°N, 74.169°W
Report Text: KBLM 241235Z AUTO 19011G17KT 8SM OVC005 17/14 A2972 RMK AO1 P0001
Loading
Personal Weather Stations






























Interactive Weather Map New forecast layout! Learn more

10-Day Weather Forecast

Advertisements
Track Severe Weather on mobile